Time;durP1;ratioP1;P1;durP2;ratioP2;P2;SDS_P1;SDS_P2;PMS_P1;PMS_P2;Temp;Humidity;BMP_temperature;BMP_pressure;BME280_temperature;BME280_humidity;BME280_pressure;Samples;Min_cycle;Max_cycle;Signal;HPM_P1;HPM_P2
2022/12/10 00:01:35;;;;;;;19.88;9.05;;;;;;;-1.00;74.78;99412.88;5096645;28;20056;-52
2022/12/10 00:04:03;;;;;;;17.13;8.70;;;;;;;-1.02;74.83;99414.50;5098289;28;20150;-51
2022/12/10 00:06:32;;;;;;;18.85;8.02;;;;;;;-1.04;74.53;99411.06;5100320;28;20562;-51
2022/12/10 00:09:00;;;;;;;20.13;9.07;;;;;;;-1.08;74.63;99407.53;5099596;28;20074;-52
2022/12/10 00:11:27;;;;;;;19.50;8.60;;;;;;;-1.11;74.71;99404.91;5095777;27;20043;-52
2022/12/10 00:13:54;;;;;;;19.30;8.13;;;;;;;-1.12;74.58;99407.41;5098000;28;20048;-51
2022/12/10 00:16:23;;;;;;;17.25;9.02;;;;;;;-1.14;75.04;99402.25;5099035;28;20054;-51
2022/12/10 00:18:50;;;;;;;21.98;8.75;;;;;;;-1.16;74.38;99401.31;5099528;28;20054;-50
2022/12/10 00:21:20;;;;;;;21.13;8.23;;;;;;;-1.18;74.83;99401.28;5099851;28;20067;-50
2022/12/10 00:23:47;;;;;;;20.75;8.40;;;;;;;-1.23;74.63;99402.81;5100296;28;20075;-49
2022/12/10 00:26:17;;;;;;;22.23;8.85;;;;;;;-1.24;74.42;99402.75;5103708;28;20112;-52
2022/12/10 00:28:45;;;;;;;23.88;9.45;;;;;;;-1.25;74.40;99406.09;5081516;28;20122;-49
2022/12/10 00:31:14;;;;;;;20.88;9.77;;;;;;;-1.28;74.25;99401.78;5103098;28;20081;-52
2022/12/10 00:33:42;;;;;;;27.25;9.52;;;;;;;-1.32;74.61;99400.78;5096188;28;20035;-50
2022/12/10 00:36:12;;;;;;;20.48;8.68;;;;;;;-1.32;74.80;99405.03;5101347;28;20051;-52
2022/12/10 00:38:40;;;;;;;21.95;9.25;;;;;;;-1.35;74.83;99410.00;5102836;28;20618;-53
2022/12/10 00:41:10;;;;;;;24.13;9.00;;;;;;;-1.37;74.29;99407.41;5102294;28;20047;-51
2022/12/10 00:43:36;;;;;;;22.30;9.27;;;;;;;-1.39;74.68;99403.94;5097407;28;20076;-53
2022/12/10 00:46:04;;;;;;;19.95;7.07;;;;;;;-1.40;74.90;99406.41;5102515;28;20067;-50
2022/12/10 00:48:31;;;;;;;19.02;8.10;;;;;;;-1.43;74.94;99402.97;5101943;28;20075;-53
2022/12/10 00:51:00;;;;;;;20.98;8.18;;;;;;;-1.45;74.71;99403.72;5095807;28;20065;-52
2022/12/10 00:53:29;;;;;;;23.52;7.97;;;;;;;-1.47;74.57;99406.22;5098996;28;20090;-53
2022/12/10 00:55:57;;;;;;;27.17;8.95;;;;;;;-1.50;74.53;99402.69;5095700;28;20079;-52
2022/12/10 00:58:27;;;;;;;17.98;8.27;;;;;;;-1.53;74.51;99405.13;5101108;28;20164;-53
2022/12/10 01:00:54;;;;;;;18.08;7.53;;;;;;;-1.56;74.84;99406.75;5096088;28;20116;-53
2022/12/10 01:03:21;;;;;;;18.35;7.93;;;;;;;-1.58;74.63;99404.97;5098324;28;20048;-53
2022/12/10 01:05:47;;;;;;;14.50;7.30;;;;;;;-1.62;74.08;99411.59;5100078;28;20071;-51
2022/12/10 01:08:14;;;;;;;20.42;8.32;;;;;;;-1.65;74.74;99411.50;5100617;28;20071;-50
2022/12/10 01:10:41;;;;;;;19.15;8.10;;;;;;;-1.66;74.84;99409.75;5098192;28;20046;-51
2022/12/10 01:13:07;;;;;;;21.23;7.82;;;;;;;-1.69;75.04;99409.66;5096964;28;20039;-48
2022/12/10 01:15:38;;;;;;;20.23;8.15;;;;;;;-1.71;74.26;99401.09;5103485;28;20047;-47
2022/12/10 01:18:05;;;;;;;17.13;8.07;;;;;;;-1.72;74.63;99399.38;5101199;28;20101;-49
2022/12/10 01:20:35;;;;;;;17.02;7.65;;;;;;;-1.73;74.43;99400.19;5103417;28;20531;-47
2022/12/10 01:23:02;;;;;;;20.48;7.75;;;;;;;-1.74;74.96;99393.38;5104329;27;20126;-50
2022/12/10 01:25:28;;;;;;;19.02;7.18;;;;;;;-1.76;74.63;99387.38;5098215;28;20155;-50
2022/12/10 01:27:55;;;;;;;15.45;6.15;;;;;;;-1.75;74.58;99396.72;5105294;28;20119;-49
2022/12/10 01:30:21;;;;;;;16.13;7.40;;;;;;;-1.74;74.89;99398.44;5103123;28;20499;-48
2022/12/10 01:32:48;;;;;;;14.98;7.78;;;;;;;-1.75;74.96;99407.75;5104669;27;20395;-48
2022/12/10 01:35:14;;;;;;;16.55;7.32;;;;;;;-1.75;74.82;99404.34;5104352;28;20051;-49
2022/12/10 01:37:41;;;;;;;15.35;6.70;;;;;;;-1.74;75.25;99404.41;5102641;28;20632;-51
2022/12/10 01:40:08;;;;;;;19.27;7.13;;;;;;;-1.73;74.73;99412.88;5103413;28;20518;-48
2022/12/10 01:42:35;;;;;;;15.02;7.28;;;;;;;-1.74;75.60;99406.94;5096237;27;20058;-50
2022/12/10 01:45:07;;;;;;;21.15;7.40;;;;;;;-1.74;75.32;99416.22;5101058;28;20043;-51
2022/12/10 01:47:34;;;;;;;21.88;7.10;;;;;;;-1.76;75.26;99408.56;5101437;28;20135;-50
2022/12/10 01:50:01;;;;;;;19.33;7.25;;;;;;;-1.75;75.06;99422.13;5101507;28;20067;-53
2022/12/10 01:52:27;;;;;;;13.02;6.57;;;;;;;-1.76;75.23;99418.72;5099701;28;20052;-52
2022/12/10 01:54:55;;;;;;;13.63;5.82;;;;;;;-1.76;75.34;99420.41;5103642;27;20801;-49
2022/12/10 01:57:26;;;;;;;23.25;6.95;;;;;;;-1.78;75.09;99419.47;5099533;28;20104;-50
2022/12/10 01:59:56;;;;;;;18.23;7.75;;;;;;;-1.79;74.72;99417.75;5102590;28;20067;-48
2022/12/10 02:05:42;;;;;;;13.45;5.90;;;;;;;-1.84;75.15;99426.06;5038944;28;20400;-49
2022/12/10 02:08:32;;;;;;;15.70;6.75;;;;;;;-1.85;74.95;99424.34;5039287;28;20516;-49
2022/12/10 02:13:56;;;;;;;17.83;8.80;;;;;;;-1.85;75.67;99433.59;5019563;27;20452;-52
2022/12/10 02:19:21;;;;;;;16.63;8.75;;;;;;;-1.87;75.30;99436.09;5030977;27;20412;-52
2022/12/10 02:21:50;;;;;;;17.85;8.75;;;;;;;-1.87;75.14;99443.69;4999803;28;20149;-50
2022/12/10 02:24:25;;;;;;;19.08;8.30;;;;;;;-1.85;75.72;99441.22;4982350;28;20071;-50
2022/12/10 02:27:03;;;;;;;24.90;8.55;;;;;;;-1.82;75.63;99446.44;4998231;28;20615;-53
2022/12/10 02:29:31;;;;;;;16.83;9.50;;;;;;;-1.78;75.47;99444.84;5001341;28;20105;-52
2022/12/10 02:32:10;;;;;;;21.92;7.97;;;;;;;-1.74;75.23;99436.53;4998671;28;20141;-53
2022/12/10 02:34:42;;;;;;;20.58;8.25;;;;;;;-1.71;75.47;99437.53;4993637;28;20148;-52
2022/12/10 02:37:17;;;;;;;16.42;6.53;;;;;;;-1.68;75.59;99434.25;4998431;28;20050;-54
2022/12/10 02:39:48;;;;;;;16.58;7.57;;;;;;;-1.66;75.39;99440.22;5014440;28;20077;-51
2022/12/10 02:42:15;;;;;;;;;;;;;;;-1.65;75.67;99436.91;4995771;28;20046;-51
2022/12/10 02:44:43;;;;;;;20.08;7.38;;;;;;;-1.60;75.70;99432.84;4998817;28;20397;-51
2022/12/10 02:47:12;;;;;;;13.90;7.75;;;;;;;-1.54;75.30;99427.13;4999966;28;20085;-52
2022/12/10 02:49:40;;;;;;;13.18;6.75;;;;;;;-1.48;75.09;99424.81;4998529;28;20093;-52
2022/12/10 02:52:09;;;;;;;15.85;7.22;;;;;;;-1.42;75.80;99432.63;4998810;28;20100;-53
2022/12/10 03:00:16;;;;;;;16.70;8.55;;;;;;;-1.28;75.04;99426.31;5048804;28;20401;-51
2022/12/10 03:02:59;;;;;;;17.38;8.73;;;;;;;-1.24;75.14;99423.06;4983437;28;20081;-51
2022/12/10 03:10:59;;;;;;;17.50;8.98;;;;;;;-1.13;75.40;99421.78;5099571;27;20400;-49
2022/12/10 03:13:36;;;;;;;21.38;7.55;;;;;;;-1.09;75.15;99427.81;5076967;28;20079;-51
2022/12/10 03:16:04;;;;;;;18.02;7.68;;;;;;;-1.06;75.21;99423.72;5056794;28;20075;-50
2022/12/10 03:18:34;;;;;;;17.92;7.13;;;;;;;-1.04;75.25;99427.16;5053656;28;20658;-52
2022/12/10 03:21:05;;;;;;;16.60;6.97;;;;;;;-1.01;75.53;99423.00;5054923;28;20094;-53
2022/12/10 03:23:33;;;;;;;;;;;;;;;-1.01;75.48;99425.53;5055023;28;20146;-53
2022/12/10 03:26:00;;;;;;;13.85;6.03;;;;;;;-1.00;75.37;99427.28;5059487;28;19974;-52
2022/12/10 03:28:26;;;;;;;12.27;5.35;;;;;;;-0.97;75.05;99418.09;5052985;28;20067;-52
2022/12/10 03:30:55;;;;;;;14.00;5.55;;;;;;;-0.93;75.26;99429.22;5055820;28;20119;-51
2022/12/10 03:33:22;;;;;;;14.50;6.28;;;;;;;-0.90;75.52;99424.22;5052966;28;20135;-52
2022/12/10 03:35:50;;;;;;;17.05;7.22;;;;;;;-0.86;75.56;99430.28;5055373;28;20045;-51
2022/12/10 03:38:17;;;;;;;15.27;8.10;;;;;;;-0.84;74.98;99423.56;5057205;28;20051;-50
2022/12/10 03:40:44;;;;;;;17.33;8.13;;;;;;;-0.81;75.36;99416.91;5051273;28;20077;-51
2022/12/10 03:43:13;;;;;;;16.02;6.47;;;;;;;-0.78;75.50;99414.47;5056850;28;20045;-51
2022/12/10 03:45:40;;;;;;;15.68;6.35;;;;;;;-0.75;75.28;99413.69;5055608;28;20037;-51
2022/12/10 03:48:07;;;;;;;18.50;6.88;;;;;;;-0.72;75.09;99407.84;5053777;28;20135;-51
2022/12/10 03:50:33;;;;;;;16.83;5.72;;;;;;;-0.72;75.12;99403.63;5055043;28;20073;-50
2022/12/10 03:53:00;;;;;;;13.45;6.50;;;;;;;-0.72;75.00;99402.75;5056949;28;20079;-48
2022/12/10 03:55:26;;;;;;;15.50;8.20;;;;;;;-0.74;75.21;99400.19;5054858;28;20053;-51
2022/12/10 03:57:53;;;;;;;13.73;6.18;;;;;;;-0.79;75.29;99412.75;5051360;28;20072;-52
2022/12/10 04:00:20;;;;;;;12.35;5.93;;;;;;;-0.86;75.31;99410.81;5051108;28;20076;-53
2022/12/10 04:02:46;;;;;;;19.88;8.38;;;;;;;-0.89;75.25;99410.69;5052022;28;20128;-52
2022/12/10 04:05:13;;;;;;;19.40;6.88;;;;;;;-0.94;75.35;99404.59;5053283;28;20128;-51
2022/12/10 04:07:39;;;;;;;17.73;6.85;;;;;;;-0.99;75.52;99403.56;5053144;28;20065;-52
2022/12/10 04:10:07;;;;;;;18.88;8.27;;;;;;;-1.04;75.41;99396.66;5054712;28;20041;-50
2022/12/10 04:12:34;;;;;;;17.70;6.25;;;;;;;-1.09;75.56;99403.28;5053107;28;20045;-51
2022/12/10 04:17:47;;;;;;;17.38;7.07;;;;;;;-1.16;75.61;99406.41;5048225;28;20084;-51
2022/12/10 04:28:33;;;;;;;13.43;6.43;;;;;;;-1.23;75.55;99401.91;5048280;28;20072;-49
2022/12/10 04:31:00;;;;;;;15.88;5.63;;;;;;;-1.23;75.67;99404.47;5041264;28;20137;-50
2022/12/10 04:33:26;;;;;;;17.13;6.70;;;;;;;-1.26;75.88;99404.34;5038773;28;20053;-51
2022/12/10 04:35:53;;;;;;;14.00;5.88;;;;;;;-1.31;75.48;99402.53;5037554;28;20076;-51
2022/12/10 04:38:19;;;;;;;15.63;6.30;;;;;;;-1.33;75.84;99413.44;5043750;28;20073;-51
2022/12/10 04:40:46;;;;;;;11.57;5.60;;;;;;;-1.38;75.52;99410.75;5040912;28;20041;-49
2022/12/10 04:43:12;;;;;;;22.50;6.05;;;;;;;-1.40;75.21;99411.50;5044329;28;20055;-50
2022/12/10 04:45:39;;;;;;;10.95;5.63;;;;;;;-1.44;75.62;99413.06;5041305;28;20045;-50
2022/12/10 04:48:06;;;;;;;12.35;7.10;;;;;;;-1.47;75.78;99415.50;5039251;28;20090;-48
2022/12/10 04:50:33;;;;;;;13.77;5.38;;;;;;;-1.50;75.64;99416.25;5035349;28;20539;-49
2022/12/10 04:52:59;;;;;;;11.52;4.97;;;;;;;-1.52;75.97;99411.94;5037999;28;20057;-52
2022/12/10 04:55:26;;;;;;;13.02;5.47;;;;;;;-1.55;75.50;99421.16;5039967;28;20088;-50
2022/12/10 04:57:52;;;;;;;12.52;5.68;;;;;;;-1.58;75.57;99418.50;5040387;28;20525;-53
2022/12/10 05:00:19;;;;;;;13.70;6.70;;;;;;;-1.58;75.62;99415.97;5039520;28;20127;-51
2022/12/10 05:02:48;;;;;;;14.63;4.72;;;;;;;-1.60;75.88;99415.06;5044385;28;20071;-52
2022/12/10 05:05:15;;;;;;;12.65;5.10;;;;;;;-1.63;76.29;99420.03;5040104;28;20076;-52
2022/12/10 05:07:41;;;;;;;12.70;5.10;;;;;;;-1.65;75.39;99416.59;5040921;28;20049;-52
2022/12/10 05:10:08;;;;;;;13.98;5.53;;;;;;;-1.66;76.12;99413.97;5037079;28;20048;-51
2022/12/10 05:12:35;;;;;;;15.70;4.13;;;;;;;-1.68;75.56;99419.00;5039556;28;20149;-53
2022/12/10 05:15:02;;;;;;;15.35;5.03;;;;;;;-1.69;75.63;99419.81;5036265;28;20072;-51
2022/12/10 05:17:28;;;;;;;11.48;4.90;;;;;;;-1.71;75.58;99411.25;5036500;28;20076;-52
2022/12/10 05:19:55;;;;;;;14.70;4.53;;;;;;;-1.73;76.16;99411.22;5036967;28;20140;-49
2022/12/10 05:25:08;;;;;;;12.00;5.18;;;;;;;-1.75;75.84;99406.88;5036270;28;20045;-51
2022/12/10 05:27:35;;;;;;;12.15;6.45;;;;;;;-1.76;75.86;99407.72;5039185;28;20633;-53
2022/12/10 05:30:01;;;;;;;9.57;4.57;;;;;;;-1.78;76.00;99405.09;5040703;28;20151;-52
2022/12/10 05:32:28;;;;;;;9.50;4.45;;;;;;;-1.79;75.85;99402.50;5041668;28;20077;-49
2022/12/10 05:34:54;;;;;;;12.52;5.13;;;;;;;-1.82;75.58;99406.66;5039049;28;20072;-49
2022/12/10 05:37:21;;;;;;;10.98;4.82;;;;;;;-1.82;76.18;99404.09;5036348;28;20059;-53
2022/12/10 05:39:48;;;;;;;10.45;6.57;;;;;;;-1.84;76.46;99405.75;5050616;28;20068;-51
2022/12/10 05:42:14;;;;;;;11.82;6.70;;;;;;;-1.84;76.11;99404.88;5056157;28;20586;-53
2022/12/10 05:44:41;;;;;;;9.90;4.97;;;;;;;-1.85;75.96;99409.09;5038319;28;20114;-50
2022/12/10 05:47:08;;;;;;;7.60;3.90;;;;;;;-1.87;76.41;99410.69;5045318;28;20076;-53
2022/12/10 05:49:35;;;;;;;8.98;3.65;;;;;;;-1.88;75.60;99403.91;5041995;28;20087;-52
2022/12/10 05:52:02;;;;;;;11.70;5.72;;;;;;;-1.88;76.42;99411.53;5040119;28;20056;-50
2022/12/10 05:54:28;;;;;;;8.55;4.18;;;;;;;-1.89;75.94;99412.31;5039795;28;20644;-50
2022/12/10 05:56:55;;;;;;;14.90;6.88;;;;;;;-1.90;76.54;99405.50;5045043;28;20084;-55
2022/12/10 05:59:22;;;;;;;10.60;4.57;;;;;;;-1.91;76.07;99408.84;5060785;28;20048;-52
2022/12/10 06:01:48;;;;;;;13.65;6.10;;;;;;;-1.92;76.03;99396.97;5037283;28;20085;-51
2022/12/10 06:04:15;;;;;;;11.95;4.20;;;;;;;-1.92;76.17;99402.06;5037911;28;20138;-51
2022/12/10 06:06:41;;;;;;;10.63;4.13;;;;;;;-1.92;76.09;99407.13;5039161;28;20049;-51
2022/12/10 06:09:12;;;;;;;9.20;3.80;;;;;;;-1.92;76.74;99411.34;5043106;28;20049;-49
2022/12/10 06:11:38;;;;;;;8.45;4.22;;;;;;;-1.94;75.79;99403.66;5039168;28;20131;-52
2022/12/10 06:14:05;;;;;;;15.40;6.63;;;;;;;-1.93;76.26;99405.38;5037733;28;20146;-54
2022/12/10 06:16:31;;;;;;;16.05;7.50;;;;;;;-1.93;76.76;99405.38;5039681;28;20106;-50
2022/12/10 06:18:58;;;;;;;11.35;5.90;;;;;;;-1.93;76.53;99407.91;5038974;28;20175;-50
2022/12/10 06:21:25;;;;;;;40.80;14.82;;;;;;;-1.94;76.82;99407.06;5039248;28;20731;-53
2022/12/10 06:23:52;;;;;;;32.85;13.00;;;;;;;-1.95;76.47;99412.09;5036873;28;20061;-52
2022/12/10 06:26:22;;;;;;;28.17;9.65;;;;;;;-1.95;76.53;99407.00;5035818;28;20080;-53
2022/12/10 06:28:49;;;;;;;18.40;10.00;;;;;;;-1.95;76.11;99404.47;5018361;28;20087;-51
2022/12/10 06:31:17;;;;;;;16.23;5.75;;;;;;;-1.96;76.58;99401.06;5064602;28;20163;-53
2022/12/10 06:33:44;;;;;;;9.02;4.95;;;;;;;-1.97;76.54;99404.41;5034370;28;20048;-53
2022/12/10 06:36:13;;;;;;;11.00;5.60;;;;;;;-1.97;76.05;99408.63;5038024;28;20493;-51
2022/12/10 06:38:40;;;;;;;13.20;5.82;;;;;;;-1.99;76.66;99405.19;5040382;28;20042;-52
2022/12/10 06:41:09;;;;;;;8.70;3.58;;;;;;;-1.99;76.27;99395.03;5038560;28;20063;-54
2022/12/10 06:43:36;;;;;;;13.07;5.97;;;;;;;-2.00;76.25;99403.41;5038463;28;20059;-51
2022/12/10 06:46:06;;;;;;;12.38;4.45;;;;;;;-2.01;76.79;99411.84;5039253;28;20068;-51
2022/12/10 06:48:34;;;;;;;8.90;4.20;;;;;;;-2.01;76.37;99406.78;5037390;28;20069;-50
2022/12/10 06:51:01;;;;;;;13.63;4.72;;;;;;;-2.02;76.12;99411.00;5039148;28;20052;-50
2022/12/10 06:53:27;;;;;;;11.43;5.80;;;;;;;-2.02;75.93;99410.13;5041564;28;20053;-49
2022/12/10 06:55:58;;;;;;;10.82;4.13;;;;;;;-2.03;76.38;99410.94;5033756;28;20106;-50
2022/12/10 06:58:27;;;;;;;10.38;4.35;;;;;;;-2.05;76.86;99407.47;5041441;28;20076;-52
2022/12/10 07:00:54;;;;;;;12.27;4.78;;;;;;;-2.07;76.68;99413.34;5038952;28;20087;-51
2022/12/10 07:03:21;;;;;;;11.70;4.78;;;;;;;-2.08;77.01;99411.63;5039966;28;20057;-50
2022/12/10 07:05:48;;;;;;;8.65;4.28;;;;;;;-2.08;77.15;99415.84;5039130;28;20124;-50
2022/12/10 07:08:17;;;;;;;9.70;4.03;;;;;;;-2.10;76.30;99413.22;5032894;28;20110;-52
2022/12/10 07:10:44;;;;;;;6.85;3.85;;;;;;;-2.09;76.93;99420.03;5036981;28;20044;-50
2022/12/10 07:13:11;;;;;;;8.30;4.05;;;;;;;-2.11;76.38;99416.59;5038346;28;20045;-50
2022/12/10 07:15:37;;;;;;;10.18;4.15;;;;;;;-2.10;76.27;99423.38;5034019;28;20052;-49
2022/12/10 07:18:04;;;;;;;9.93;4.18;;;;;;;-2.10;76.37;99415.78;5035849;28;20068;-51
2022/12/10 07:20:30;;;;;;;10.48;6.35;;;;;;;-2.11;77.15;99416.59;5035326;28;20069;-52
2022/12/10 07:22:57;;;;;;;9.32;4.03;;;;;;;-2.10;76.42;99415.78;5041129;28;20072;-51
2022/12/10 07:25:24;;;;;;;13.30;5.25;;;;;;;-2.11;76.96;99425.84;5039209;28;20059;-48
2022/12/10 07:27:50;;;;;;;11.88;5.68;;;;;;;-2.10;76.09;99423.38;5041101;28;20076;-50
2022/12/10 07:30:23;;;;;;;10.35;5.10;;;;;;;-2.10;76.39;99428.47;5035680;28;20049;-51
2022/12/10 07:32:49;;;;;;;8.68;4.53;;;;;;;-2.12;76.39;99430.09;5039577;28;20732;-52
2022/12/10 07:35:16;;;;;;;10.05;5.72;;;;;;;-2.14;76.07;99424.06;5037368;28;20515;-52
2022/12/10 07:37:43;;;;;;;9.20;4.82;;;;;;;-2.14;76.98;99431.69;5036219;28;20041;-52
2022/12/10 07:40:10;;;;;;;11.68;5.18;;;;;;;-2.17;76.25;99421.41;5038929;28;20076;-52
2022/12/10 07:42:37;;;;;;;11.38;5.13;;;;;;;-2.19;76.22;99425.59;5050048;28;20056;-53
2022/12/10 07:45:03;;;;;;;13.70;5.40;;;;;;;-2.20;76.32;99428.91;5057576;28;20463;-52
2022/12/10 07:47:30;;;;;;;11.40;6.75;;;;;;;-2.21;76.91;99430.59;5058143;28;20129;-52
2022/12/10 07:49:57;;;;;;;8.00;3.30;;;;;;;-2.20;76.91;99423.81;5055954;28;20127;-53
2022/12/10 07:52:23;;;;;;;10.50;5.97;;;;;;;-2.21;76.82;99434.78;5057356;28;20045;-51
2022/12/10 07:54:50;;;;;;;11.60;4.95;;;;;;;-2.19;76.36;99435.72;5056363;28;20788;-50
2022/12/10 07:57:16;;;;;;;11.57;4.50;;;;;;;-2.18;76.55;99432.38;5061773;28;20044;-52
2022/12/10 07:59:43;;;;;;;17.05;6.38;;;;;;;-2.18;76.77;99434.91;5060794;28;20439;-52
2022/12/10 08:02:09;;;;;;;24.73;7.82;;;;;;;-2.17;77.00;99435.78;5043033;28;20494;-50
2022/12/10 08:04:37;;;;;;;22.80;7.28;;;;;;;-2.16;76.70;99433.28;5038230;28;20092;-52
2022/12/10 08:07:04;;;;;;;21.98;9.00;;;;;;;-2.16;76.91;99432.44;5040486;28;20322;-53
2022/12/10 08:09:31;;;;;;;33.47;8.38;;;;;;;-2.12;76.89;99440.25;5039483;28;20068;-48
2022/12/10 08:11:58;;;;;;;37.42;13.48;;;;;;;-2.12;77.25;99427.56;5044175;28;20110;-54
2022/12/10 08:14:24;;;;;;;33.65;10.40;;;;;;;-2.10;76.35;99427.59;5058829;28;20044;-51
2022/12/10 08:16:51;;;;;;;35.92;9.23;;;;;;;-2.02;76.52;99435.50;5057801;28;20143;-48
2022/12/10 08:19:17;;;;;;;29.13;9.85;;;;;;;-1.90;76.72;99430.88;5060548;28;20393;-50
2022/12/10 08:21:50;;;;;;;30.40;9.45;;;;;;;-1.68;76.98;99441.84;5058335;28;20057;-50
2022/12/10 08:24:16;;;;;;;39.13;11.88;;;;;;;-1.44;76.84;99446.09;5057933;28;20080;-52
2022/12/10 08:26:43;;;;;;;49.67;14.95;;;;;;;-1.21;76.57;99451.16;5058431;28;20123;-53
2022/12/10 08:29:09;;;;;;;36.55;11.60;;;;;;;-0.97;76.59;99442.63;5058940;28;20076;-53
2022/12/10 08:31:36;;;;;;;14.52;7.13;;;;;;;-0.55;76.77;99449.97;5058583;28;20045;-52
2022/12/10 08:34:10;;;;;;;23.25;9.50;;;;;;;-0.05;76.25;99448.97;5057011;28;20496;-50
2022/12/10 08:36:36;;;;;;;18.85;5.97;;;;;;;0.46;75.69;99446.19;5057540;28;20106;-52
2022/12/10 08:39:03;;;;;;;36.70;11.05;;;;;;;0.95;75.01;99453.47;5057708;28;20075;-50
2022/12/10 08:41:29;;;;;;;36.70;10.73;;;;;;;1.31;75.75;99449.31;5053361;28;20067;-49
2022/12/10 08:43:56;;;;;;;34.88;12.38;;;;;;;1.65;75.27;99452.66;5055063;28;20514;-52
2022/12/10 08:46:24;;;;;;;26.63;10.38;;;;;;;2.11;73.84;99459.66;5055743;28;20079;-48
2022/12/10 08:48:51;;;;;;;35.22;13.65;;;;;;;2.56;73.58;99453.81;5054178;28;20135;-52
2022/12/10 08:51:19;;;;;;;30.52;12.20;;;;;;;3.05;73.57;99447.91;5055154;28;20087;-52
2022/12/10 08:53:46;;;;;;;26.52;10.63;;;;;;;3.58;73.90;99453.91;5056878;28;20048;-51
2022/12/10 08:56:12;;;;;;;22.48;9.85;;;;;;;4.08;73.03;99444.41;5058645;28;20128;-51
2022/12/10 08:58:39;;;;;;;28.55;11.45;;;;;;;4.41;72.86;99451.66;5060005;28;20076;-52
2022/12/10 09:01:09;;;;;;;19.50;9.63;;;;;;;4.74;73.07;99450.34;5055007;28;20072;-53
2022/12/10 09:03:36;;;;;;;13.10;6.70;;;;;;;5.26;72.61;99452.59;5056787;28;20052;-52
2022/12/10 09:06:05;;;;;;;12.60;6.68;;;;;;;5.91;72.18;99449.69;5059710;28;20049;-52
2022/12/10 09:08:32;;;;;;;12.98;7.07;;;;;;;6.48;70.70;99442.31;5057877;28;20103;-49
2022/12/10 09:11:05;;;;;;;17.60;8.70;;;;;;;7.10;69.61;99447.66;5057364;28;20037;-52
2022/12/10 09:13:32;;;;;;;20.17;9.73;;;;;;;7.66;67.96;99441.66;5056721;28;20132;-50
2022/12/10 09:15:58;;;;;;;14.48;7.30;;;;;;;7.98;67.54;99446.78;5055025;28;20492;-52
2022/12/10 09:18:25;;;;;;;9.88;6.93;;;;;;;8.21;67.15;99448.44;5058938;28;20052;-54
2022/12/10 09:20:51;;;;;;;10.95;6.45;;;;;;;8.53;67.45;99448.34;5060906;28;20090;-52
2022/12/10 09:23:18;;;;;;;10.18;6.50;;;;;;;8.82;67.10;99444.81;5061481;28;20655;-54
2022/12/10 09:25:45;;;;;;;10.20;6.03;;;;;;;9.23;65.70;99446.25;5059033;28;20518;-52
2022/12/10 09:28:11;;;;;;;7.30;3.38;;;;;;;9.72;64.97;99449.34;5055338;28;20652;-54
2022/12/10 09:30:38;;;;;;;10.43;6.45;;;;;;;10.25;63.76;99448.84;5056546;28;20155;-53
2022/12/10 09:33:05;;;;;;;7.68;4.85;;;;;;;10.73;62.35;99439.66;5058505;28;20057;-53
2022/12/10 09:35:32;;;;;;;7.60;5.68;;;;;;;11.18;62.49;99451.16;5056462;28;20052;-53
2022/12/10 09:37:58;;;;;;;10.77;5.88;;;;;;;11.72;62.24;99452.00;5058177;28;20072;-53
2022/12/10 09:40:36;;;;;;;9.75;5.80;;;;;;;12.24;60.90;99454.59;5056472;28;20045;-53
2022/12/10 09:51:28;;;;;;;10.20;4.57;;;;;;;14.00;56.70;99468.00;5039188;28;20422;-51
2022/12/10 09:53:58;;;;;;;6.32;3.88;;;;;;;14.36;56.18;99470.50;5013863;28;20111;-54
2022/12/10 09:56:31;;;;;;;6.60;4.10;;;;;;;14.68;54.77;99464.41;5016208;28;20519;-52
2022/12/10 09:59:01;;;;;;;10.15;4.45;;;;;;;15.04;53.91;99466.88;5015936;28;20630;-53
2022/12/10 10:01:30;;;;;;;;;;;;;;;15.42;54.74;99461.34;5038938;28;20520;-53
2022/12/10 10:03:56;;;;;;;7.75;4.28;;;;;;;15.71;53.22;99474.34;5010475;28;20011;-55
2022/12/10 10:06:26;;;;;;;12.85;7.00;;;;;;;15.95;52.13;99464.88;5014461;28;20072;-53
2022/12/10 10:08:56;;;;;;;10.27;4.82;;;;;;;16.22;51.11;99463.94;5013219;28;20052;-54
2022/12/10 10:11:28;;;;;;;9.00;5.20;;;;;;;16.41;50.20;99462.38;5015633;28;20141;-55
2022/12/10 10:14:03;;;;;;;7.03;4.22;;;;;;;16.57;49.02;99467.03;5015894;28;20652;-54
2022/12/10 10:16:47;;;;;;;11.02;4.75;;;;;;;16.74;49.13;99473.41;5007318;28;20139;-55
2022/12/10 10:19:21;;;;;;;7.20;4.63;;;;;;;16.87;48.73;99477.25;5013483;28;20062;-55
2022/12/10 10:21:49;;;;;;;6.93;4.93;;;;;;;17.02;47.68;99464.50;5016039;28;20059;-55
2022/12/10 10:24:19;;;;;;;11.10;5.10;;;;;;;17.15;46.75;99464.88;5013332;28;20158;-56
2022/12/10 10:26:47;;;;;;;8.52;5.05;;;;;;;17.21;47.08;99467.28;5012428;28;20133;-56
2022/12/10 10:29:18;;;;;;;8.10;4.88;;;;;;;17.29;46.25;99469.59;5010724;28;20073;-55
2022/12/10 10:31:46;;;;;;;7.13;3.90;;;;;;;17.23;44.75;99473.31;5019747;28;20057;-53
2022/12/10 10:34:18;;;;;;;9.52;4.93;;;;;;;17.20;44.34;99470.81;5012302;28;20084;-53
2022/12/10 10:36:46;;;;;;;8.38;4.47;;;;;;;17.00;44.16;99464.56;5012213;28;20069;-51
2022/12/10 10:41:55;;;;;;;8.88;4.80;;;;;;;15.86;43.88;99458.16;5067295;27;20393;-52
2022/12/10 10:44:27;;;;;;;10.27;5.80;;;;;;;15.02;45.79;99458.25;5022096;28;20421;-53
2022/12/10 10:46:56;;;;;;;11.75;5.32;;;;;;;14.25;46.61;99456.94;5063321;28;20159;-52
2022/12/10 10:49:25;;;;;;;9.85;4.00;;;;;;;13.56;47.00;99453.50;5015808;28;20046;-56
2022/12/10 10:52:16;;;;;;;6.80;3.75;;;;;;;12.92;47.32;99451.47;5018317;28;20046;-58
2022/12/10 10:54:45;;;;;;;7.32;4.07;;;;;;;12.36;48.67;99455.22;5015330;28;20057;-54
2022/12/10 10:59:54;;;;;;;10.00;5.55;;;;;;;11.46;48.62;99448.13;5139087;27;20382;-54
2022/12/10 11:05:04;;;;;;;7.50;3.45;;;;;;;10.45;50.82;99444.31;5076312;27;20400;-50
2022/12/10 11:07:37;;;;;;;6.70;4.38;;;;;;;9.99;50.75;99451.69;5037227;28;20087;-50
2022/12/10 11:10:17;;;;;;;8.80;3.53;;;;;;;9.56;51.46;99453.78;5063695;28;20049;-53
2022/12/10 11:12:52;;;;;;;7.35;3.30;;;;;;;9.24;52.08;99453.19;5034907;28;20060;-52
2022/12/10 11:18:00;;;;;;;7.07;3.60;;;;;;;8.82;53.02;99449.97;5046712;28;20414;-55
2022/12/10 11:20:33;;;;;;;7.93;3.85;;;;;;;8.61;53.33;99454.34;4996385;28;20108;-54
2022/12/10 11:23:10;;;;;;;8.10;3.40;;;;;;;8.33;53.94;99446.69;5008836;28;20192;-54
2022/12/10 11:25:50;;;;;;;8.18;3.90;;;;;;;8.10;55.05;99455.34;5010835;28;20082;-52
2022/12/10 11:33:59;;;;;;;7.47;3.10;;;;;;;8.02;55.82;99446.78;5090593;27;20467;-53
2022/12/10 11:42:30;;;;;;;6.07;3.10;;;;;;;7.81;55.74;99449.38;5040724;27;20408;-46
2022/12/10 11:45:14;;;;;;;6.43;3.08;;;;;;;8.03;55.63;99445.91;4996877;28;20069;-50
2022/12/10 11:48:04;;;;;;;6.53;3.10;;;;;;;7.91;55.94;99439.91;4998903;28;20141;-48
2022/12/10 11:50:42;;;;;;;6.55;2.92;;;;;;;7.65;56.26;99438.25;4993248;28;20053;-53
2022/12/10 11:53:22;;;;;;;5.72;2.70;;;;;;;7.52;56.91;99442.53;4978254;28;20058;-48
2022/12/10 12:07:15;;;;;;;12.05;5.80;;;;;;;6.80;57.88;99424.41;5034733;27;20460;-51
2022/12/10 12:14:58;;;;;;;8.50;4.43;;;;;;;6.27;58.30;99420.78;5084840;27;20397;-49
2022/12/10 12:20:24;;;;;;;5.68;2.55;;;;;;;5.95;59.53;99434.28;5100163;27;20389;-48
2022/12/10 12:23:23;;;;;;;3.92;2.35;;;;;;;5.75;59.21;99423.00;5078307;28;20707;-49
2022/12/10 12:25:56;;;;;;;4.32;2.33;;;;;;;5.55;60.29;99430.59;5092293;28;20105;-49
2022/12/10 12:31:06;;;;;;;5.80;2.65;;;;;;;5.39;59.66;99425.34;5064764;27;20405;-49
2022/12/10 12:33:42;;;;;;;5.85;3.05;;;;;;;5.31;60.25;99426.09;5044057;28;20049;-46
2022/12/10 12:36:16;;;;;;;6.20;2.92;;;;;;;5.23;60.28;99431.16;5041732;28;20076;-50
2022/12/10 12:39:09;;;;;;;8.15;3.53;;;;;;;5.10;61.04;99428.47;5034202;28;20054;-51
2022/12/10 12:47:19;;;;;;;5.95;2.78;;;;;;;4.87;61.43;99416.28;5022458;28;20411;-49
2022/12/10 12:49:48;;;;;;;6.65;3.72;;;;;;;4.84;61.32;99417.97;5019157;28;20498;-49
2022/12/10 12:52:40;;;;;;;5.40;2.72;;;;;;;4.76;61.50;99418.75;5019439;28;20077;-53
2022/12/10 12:55:21;;;;;;;6.63;4.00;;;;;;;4.75;62.17;99421.28;5016278;28;20141;-51
2022/12/10 12:57:56;;;;;;;11.43;3.38;;;;;;;4.73;61.97;99417.88;5016602;28;20077;-52
2022/12/10 13:00:24;;;;;;;7.75;3.88;;;;;;;4.68;61.80;99425.50;5020192;28;20472;-51
2022/12/10 13:05:30;;;;;;;5.72;3.50;;;;;;;4.60;62.76;99416.84;5109897;27;22182;-50
2022/12/10 13:13:34;;;;;;;6.57;4.38;;;;;;;4.59;63.87;99416.00;5023587;27;21362;-50
2022/12/10 13:16:41;;;;;;;12.07;4.25;;;;;;;4.46;63.60;99424.41;4998620;28;20074;-50
2022/12/10 13:46:33;;;;;;;8.38;4.53;;;;;;;4.08;64.82;99423.91;5028380;27;20402;-50